Time;durP1;ratioP1;P1;durP2;ratioP2;P2;SDS_P1;SDS_P2;PMS_P1;PMS_P2;Temp;Humidity;BMP_temperature;BMP_pressure;BME280_temperature;BME280_humidity;BME280_pressure;Samples;Min_cycle;Max_cycle;Signal;HPM_P1;HPM_P2
2022/05/28 00:01:30;;;;;;;;;6.33;5.33;;;;;15.41;58.30;101789.06;5027836;27;46261;-66
2022/05/28 00:03:57;;;;;;;;;9.67;7.00;;;;;15.41;58.20;101786.41;5034524;27;45344;-65
2022/05/28 00:06:28;;;;;;;;;6.00;6.00;;;;;15.41;58.21;101779.22;5034325;27;45461;-65
2022/05/28 00:08:56;;;;;;;;;8.00;8.00;;;;;15.35;58.71;101772.38;5032989;27;45459;-66
2022/05/28 00:11:28;;;;;;;;;8.67;7.00;;;;;15.33;58.47;101782.31;5018837;27;46076;-65
2022/05/28 00:13:54;;;;;;;;;5.00;5.00;;;;;15.32;58.30;101777.06;5035590;28;45558;-63
2022/05/28 00:16:20;;;;;;;;;8.67;7.33;;;;;15.31;58.14;101776.19;5085378;27;46063;-65
2022/05/28 00:18:47;;;;;;;;;8.00;8.00;;;;;15.31;58.43;101775.31;5084434;27;45641;-65
2022/05/28 00:21:14;;;;;;;;;5.33;5.33;;;;;15.29;58.33;101775.41;5047514;27;46164;-65
2022/05/28 00:23:41;;;;;;;;;4.67;4.67;;;;;15.26;58.00;101770.25;5034808;27;45402;-66
2022/05/28 00:26:07;;;;;;;;;7.67;7.67;;;;;15.23;58.05;101758.81;5028621;28;45253;-65
2022/05/28 00:28:33;;;;;;;;;10.00;9.33;;;;;15.27;58.34;101766.59;5052526;27;45513;-65
2022/05/28 00:30:59;;;;;;;;;8.00;8.00;;;;;15.28;58.13;101765.66;5032761;27;46074;-64
2022/05/28 00:33:25;;;;;;;;;8.00;8.00;;;;;15.25;58.90;101768.50;5034243;27;45671;-63
2022/05/28 00:35:50;;;;;;;;;8.67;8.67;;;;;15.26;57.99;101774.75;5025548;27;45625;-65
2022/05/28 00:38:16;;;;;;;;;10.67;9.67;;;;;15.25;58.93;101765.84;5034733;28;45430;-64
2022/05/28 00:40:51;;;;;;;;;7.67;6.67;;;;;15.20;58.64;101765.22;5023804;27;45439;-66
2022/05/28 00:43:17;;;;;;;;;10.00;5.33;;;;;15.15;58.64;101766.44;5022943;28;45395;-65
2022/05/28 00:45:46;;;;;;;;;6.67;6.67;;;;;15.13;58.44;101768.34;5027993;28;45760;-66
2022/05/28 00:48:17;;;;;;;;;13.67;8.00;;;;;15.12;58.40;101762.13;5012643;28;45435;-65
2022/05/28 00:50:44;;;;;;;;;9.67;8.00;;;;;15.11;58.40;101752.34;5030679;28;45544;-66
2022/05/28 00:53:09;;;;;;;;;6.33;4.00;;;;;15.14;58.92;101760.22;5028596;27;45469;-63
2022/05/28 00:55:36;;;;;;;;;5.67;5.67;;;;;15.13;58.29;101752.28;5013996;28;45415;-64
2022/05/28 00:58:04;;;;;;;;;9.67;8.00;;;;;15.11;58.33;101746.13;5017240;28;45359;-64
2022/05/28 01:00:34;;;;;;;;;7.00;7.00;;;;;15.10;58.51;101758.63;5028151;28;45679;-64
2022/05/28 01:03:29;;;;;;;;;8.00;8.00;;;;;15.06;59.25;101757.09;5037386;27;45413;-65
2022/05/28 01:06:22;;;;;;;;;7.00;7.00;;;;;14.99;59.14;101761.09;5037235;27;45470;-64
2022/05/28 01:08:54;;;;;;;;;7.00;4.67;;;;;14.86;59.54;101758.22;5032891;27;45360;-64
2022/05/28 01:11:35;;;;;;;;;6.00;5.00;;;;;14.81;59.23;101748.69;5016733;28;46953;-65
2022/05/28 01:14:23;;;;;;;;;5.00;5.00;;;;;14.78;60.00;101752.41;5013180;28;45551;-65
2022/05/28 01:17:08;;;;;;;;;4.00;4.00;;;;;14.78;59.79;101759.59;5065740;27;45728;-67
2022/05/28 01:19:47;;;;;;;;;6.00;6.00;;;;;14.75;59.85;101757.94;5030970;27;45507;-65
2022/05/28 01:22:22;;;;;;;;;9.33;8.33;;;;;14.72;59.36;101758.97;5040918;28;47570;-64
2022/05/28 01:25:06;;;;;;;;;9.00;7.67;;;;;14.71;59.91;101745.66;5049643;27;45344;-65
2022/05/28 01:27:38;;;;;;;;;8.00;6.33;;;;;14.72;59.89;101748.28;5013730;28;45533;-67
2022/05/28 01:30:07;;;;;;;;;7.33;5.00;;;;;14.68;60.39;101735.97;5026359;27;45492;-65
2022/05/28 01:32:34;;;;;;;;;8.00;4.67;;;;;14.62;60.42;101736.34;5138871;27;45870;-65
2022/05/28 01:35:06;;;;;;;;;8.67;7.33;;;;;14.65;60.53;101743.31;5131453;27;45349;-64
2022/05/28 01:37:32;;;;;;;;;9.00;9.00;;;;;14.65;60.07;101738.84;5033227;28;45573;-64
2022/05/28 01:40:00;;;;;;;;;7.00;6.00;;;;;14.66;60.46;101732.53;5036118;27;45479;-65
2022/05/28 01:42:27;;;;;;;;;9.00;8.33;;;;;14.64;60.25;101722.84;5032351;28;46401;-64
2022/05/28 01:44:53;;;;;;;;;7.00;7.00;;;;;14.69;59.77;101735.03;5032061;28;45307;-65
2022/05/28 01:47:20;;;;;;;;;11.33;7.00;;;;;14.68;60.00;101727.94;5031623;28;45394;-65
2022/05/28 01:49:46;;;;;;;;;10.00;9.00;;;;;14.68;59.97;101729.75;5013619;28;45282;-66
2022/05/28 01:52:14;;;;;;;;;11.00;9.00;;;;;14.63;60.47;101732.69;5016077;28;46769;-66
2022/05/28 01:54:44;;;;;;;;;9.67;8.67;;;;;14.60;60.38;101718.63;5028385;27;45496;-64
2022/05/28 01:57:12;;;;;;;;;9.33;9.00;;;;;14.60;60.93;101737.38;5040688;28;45319;-65
2022/05/28 01:59:37;;;;;;;;;7.00;7.00;;;;;14.56;60.27;101731.28;5033429;28;45353;-65
2022/05/28 02:02:09;;;;;;;;;14.00;9.00;;;;;14.56;60.56;101728.63;5030932;28;46363;-65
2022/05/28 02:04:37;;;;;;;;;12.33;8.00;;;;;14.53;61.29;101727.94;5033576;28;45245;-63
2022/05/28 02:07:03;;;;;;;;;9.33;8.33;;;;;14.49;60.41;101729.91;5014154;28;45305;-64
2022/05/28 02:09:33;;;;;;;;;15.00;8.33;;;;;14.52;60.96;101715.50;5013410;28;45794;-68
2022/05/28 02:12:26;;;;;;;;;10.33;9.00;;;;;14.52;60.45;101721.72;5028427;27;45440;-64
2022/05/28 02:14:57;;;;;;;;;8.00;8.00;;;;;14.54;60.21;101717.13;5047887;28;45260;-63
2022/05/28 02:17:35;;;;;;;;;8.00;6.00;;;;;14.53;60.35;101720.75;5096030;27;45324;-66
2022/05/28 02:20:17;;;;;;;;;8.00;8.00;;;;;14.52;60.58;101723.53;5016576;28;45494;-66
2022/05/28 02:22:52;;;;;;;;;5.00;5.00;;;;;14.55;60.87;101715.31;5012763;28;46032;-64
2022/05/28 02:25:28;;;;;;;;;7.67;7.67;;;;;14.52;60.78;101719.03;5030196;28;45693;-66
2022/05/28 02:27:55;;;;;;;;;7.67;7.67;;;;;14.50;60.75;101712.03;5032837;28;45364;-64
2022/05/28 02:30:21;;;;;;;;;9.00;9.00;;;;;14.43;61.49;101712.31;5028148;27;45586;-64
2022/05/28 02:32:46;;;;;;;;;8.33;8.00;;;;;14.43;61.38;101706.09;5044222;28;45965;-65
2022/05/28 02:35:13;;;;;;;;;8.67;7.00;;;;;14.46;61.66;101708.69;5017879;28;45477;-64
2022/05/28 02:37:38;;;;;;;;;7.33;7.00;;;;;14.36;61.75;101707.41;5016892;28;45366;-64
2022/05/28 02:40:05;;;;;;;;;7.67;6.00;;;;;14.33;61.37;101704.91;5018070;28;45371;-64
2022/05/28 02:42:32;;;;;;;;;7.33;7.33;;;;;14.35;61.67;101705.69;5020055;27;45423;-66
2022/05/28 02:44:58;;;;;;;;;7.00;7.00;;;;;14.30;61.83;101707.72;5012476;28;45416;-65
2022/05/28 02:47:24;;;;;;;;;14.00;10.33;;;;;14.32;61.71;101696.00;5012929;28;45668;-64
2022/05/28 02:49:51;;;;;;;;;6.00;3.00;;;;;14.36;61.43;101691.34;5035297;28;45571;-64
2022/05/28 02:52:16;;;;;;;;;7.67;7.67;;;;;14.35;61.37;101689.63;5028765;27;45976;-64
2022/05/28 02:54:42;;;;;;;;;6.33;6.33;;;;;14.34;61.66;101688.75;5032260;27;45350;-66
2022/05/28 02:57:07;;;;;;;;;11.00;8.00;;;;;14.34;61.69;101683.41;5015779;28;45482;-64
2022/05/28 02:59:32;;;;;;;;;13.00;10.00;;;;;14.32;62.24;101690.66;5012341;28;45321;-64
2022/05/28 03:01:58;;;;;;;;;10.67;9.33;;;;;14.23;61.92;101687.63;5012288;27;45331;-65
2022/05/28 03:04:23;;;;;;;;;8.33;8.33;;;;;14.29;62.21;101697.97;5047729;27;45345;-64
2022/05/28 03:06:49;;;;;;;;;9.67;8.67;;;;;14.23;61.83;101692.97;5023742;28;46907;-66
2022/05/28 03:09:15;;;;;;;;;9.67;8.00;;;;;14.26;62.46;101699.00;5024717;28;47053;-66
2022/05/28 03:11:41;;;;;;;;;10.00;8.33;;;;;14.23;61.97;101680.44;5012034;27;46336;-65
2022/05/28 03:14:07;;;;;;;;;8.00;8.00;;;;;14.25;61.98;101699.94;5013749;27;45504;-65
2022/05/28 03:16:32;;;;;;;;;8.00;8.00;;;;;14.23;62.00;101690.28;5033684;27;45498;-64
2022/05/28 03:18:57;;;;;;;;;10.00;8.00;;;;;14.24;62.58;101694.69;5029630;27;45340;-64
2022/05/28 03:21:23;;;;;;;;;11.33;11.33;;;;;14.18;62.60;101695.88;5015119;28;45422;-63
2022/05/28 03:23:49;;;;;;;;;11.67;10.00;;;;;14.21;62.00;101692.19;5017103;27;45434;-65
2022/05/28 03:26:24;;;;;;;;;20.67;13.67;;;;;14.21;62.48;101687.69;5042915;28;45401;-65
2022/05/28 03:28:50;;;;;;;;;11.00;10.33;;;;;14.23;61.91;101691.16;5036266;28;45401;-64
2022/05/28 03:31:16;;;;;;;;;10.00;9.00;;;;;14.20;62.17;101691.31;5023782;27;45355;-64
2022/05/28 03:33:42;;;;;;;;;11.67;9.00;;;;;14.18;62.85;101703.88;5014558;28;45275;-65
2022/05/28 03:36:08;;;;;;;;;9.33;9.33;;;;;14.15;62.70;101694.22;5015255;28;45269;-64
2022/05/28 03:38:34;;;;;;;;;11.67;10.00;;;;;14.15;62.38;101694.22;5035777;27;45546;-67
2022/05/28 03:41:00;;;;;;;;;11.00;8.00;;;;;14.11;62.83;101698.03;5035850;28;45481;-65
2022/05/28 03:43:26;;;;;;;;;9.33;9.00;;;;;14.06;62.92;101688.50;5023943;28;45480;-65
2022/05/28 03:45:52;;;;;;;;;8.00;5.00;;;;;14.05;63.42;101695.66;5033019;28;45460;-64
2022/05/28 03:48:17;;;;;;;;;9.67;9.00;;;;;14.02;63.20;101695.81;5025190;27;45561;-64
2022/05/28 03:50:43;;;;;;;;;13.67;8.00;;;;;14.00;63.11;101695.03;5032415;28;47035;-65
2022/05/28 03:53:09;;;;;;;;;9.00;9.00;;;;;13.97;63.74;101703.22;5034700;28;45428;-64
2022/05/28 03:55:37;;;;;;;;;14.00;9.00;;;;;13.93;64.24;101706.13;5032254;27;45408;-64
2022/05/28 03:58:03;;;;;;;;;14.33;9.00;;;;;13.84;63.75;101710.16;5031567;27;45709;-64
2022/05/28 04:00:29;;;;;;;;;13.00;7.00;;;;;13.81;64.89;101715.69;5029905;27;45417;-65
2022/05/28 04:02:54;;;;;;;;;13.33;9.00;;;;;13.76;64.76;101718.56;5054437;28;45315;-63
2022/05/28 04:05:22;;;;;;;;;7.00;7.00;;;;;13.71;64.81;101709.06;5023286;28;45809;-64
2022/05/28 04:07:48;;;;;;;;;16.67;10.00;;;;;13.66;64.67;101717.31;5018065;28;46036;-64
2022/05/28 04:10:13;;;;;;;;;13.67;9.00;;;;;13.58;65.49;101712.38;5014773;28;46225;-67
2022/05/28 04:12:39;;;;;;;;;12.00;9.33;;;;;13.51;65.63;101712.75;5033477;28;45342;-64
2022/05/28 04:15:05;;;;;;;;;14.67;10.67;;;;;13.52;65.93;101718.00;5034731;28;45439;-65
2022/05/28 04:17:31;;;;;;;;;12.67;10.67;;;;;13.48;65.94;101720.91;5050654;27;45595;-67
2022/05/28 04:19:56;;;;;;;;;9.00;9.00;;;;;13.50;65.98;101732.41;5041802;28;47161;-64
2022/05/28 04:22:21;;;;;;;;;10.00;9.67;;;;;13.47;66.33;101728.06;5033699;28;45176;-64
2022/05/28 04:24:47;;;;;;;;;10.33;9.00;;;;;13.51;65.34;101724.28;5034942;28;45246;-65
2022/05/28 04:27:12;;;;;;;;;11.67;9.33;;;;;13.55;65.15;101725.03;5033539;28;45494;-65
2022/05/28 04:29:38;;;;;;;;;9.33;9.33;;;;;13.56;64.82;101727.63;5034404;28;45389;-64
2022/05/28 04:32:03;;;;;;;;;10.67;9.33;;;;;13.52;65.33;101715.34;5032394;28;45194;-65
2022/05/28 04:34:29;;;;;;;;;13.00;13.00;;;;;13.58;65.64;101731.06;5028910;27;45228;-65
2022/05/28 04:36:54;;;;;;;;;10.33;10.33;;;;;13.59;65.13;101726.59;5027504;28;45648;-65
2022/05/28 04:39:20;;;;;;;;;11.33;10.00;;;;;13.55;65.17;101715.19;5032749;28;48320;-66
2022/05/28 04:41:45;;;;;;;;;13.00;10.00;;;;;13.62;64.71;101718.41;5033324;27;45214;-63
2022/05/28 04:44:11;;;;;;;;;11.00;11.00;;;;;13.65;65.21;101730.75;5034542;28;45225;-65
2022/05/28 04:46:37;;;;;;;;;17.00;14.67;;;;;13.63;64.92;101735.31;5033396;28;45509;-63
2022/05/28 04:49:04;;;;;;;;;12.67;11.00;;;;;13.62;64.82;101725.56;5034629;27;45984;-65
2022/05/28 04:51:29;;;;;;;;;12.33;12.33;;;;;13.61;65.32;101719.34;5019879;28;46279;-65
2022/05/28 04:53:55;;;;;;;;;11.33;9.67;;;;;13.67;64.41;101729.75;5041568;28;45594;-64
2022/05/28 04:56:21;;;;;;;;;9.00;8.00;;;;;13.70;64.44;101728.72;5040621;28;46677;-64
2022/05/28 04:58:46;;;;;;;;;15.67;9.00;;;;;13.73;64.53;101731.25;5013715;28;47001;-65
2022/05/28 05:01:17;;;;;;;;;11.67;9.67;;;;;13.70;64.59;101734.06;5015658;27;45578;-64
2022/05/28 05:03:43;;;;;;;;;11.67;8.67;;;;;13.68;64.59;101734.16;5028899;27;45754;-66
2022/05/28 05:06:08;;;;;;;;;12.00;11.00;;;;;13.67;64.61;101731.53;5017218;27;45647;-64
2022/05/28 05:08:34;;;;;;;;;14.67;11.33;;;;;13.76;64.31;101739.09;5031909;27;45469;-65
2022/05/28 05:11:00;;;;;;;;;15.00;11.33;;;;;13.74;64.04;101738.31;5013645;28;45419;-64
2022/05/28 05:13:26;;;;;;;;;13.00;11.00;;;;;13.78;64.32;101737.19;5014301;28;45395;-64
2022/05/28 05:15:51;;;;;;;;;10.00;10.00;;;;;13.79;63.84;101728.25;5036045;27;45301;-64
2022/05/28 05:18:17;;;;;;;;;12.67;10.67;;;;;13.86;63.82;101740.38;5030098;28;46105;-64
2022/05/28 05:20:42;;;;;;;;;8.00;8.00;;;;;13.88;63.85;101733.13;5031783;27;45454;-65
2022/05/28 05:23:08;;;;;;;;;11.33;8.00;;;;;13.90;63.44;101733.03;5052493;27;45609;-64
2022/05/28 05:25:33;;;;;;;;;19.67;14.00;;;;;13.93;63.54;101731.06;5033911;28;45485;-64
2022/05/28 05:27:59;;;;;;;;;8.00;8.00;;;;;13.95;63.68;101739.91;5033861;28;45293;-63
2022/05/28 05:30:25;;;;;;;;;10.67;8.33;;;;;13.95;63.24;101737.22;5029334;27;45630;-65
2022/05/28 05:32:50;;;;;;;;;15.00;9.00;;;;;13.91;63.12;101730.28;5033756;28;45205;-63
2022/05/28 05:35:16;;;;;;;;;10.67;9.67;;;;;13.94;63.55;101724.81;5032392;28;45476;-66
2022/05/28 05:37:42;;;;;;;;;19.00;12.67;;;;;13.96;63.61;101730.94;5032787;28;46008;-65
2022/05/28 05:40:08;;;;;;;;;11.67;11.00;;;;;14.00;63.58;101734.28;5027769;28;45444;-64
2022/05/28 05:42:34;;;;;;;;;13.00;10.33;;;;;14.03;63.24;101735.00;5053659;27;45376;-64
2022/05/28 05:44:59;;;;;;;;;8.67;8.33;;;;;14.03;63.26;101729.66;5045829;27;45486;-65
2022/05/28 05:47:24;;;;;;;;;18.33;9.33;;;;;14.00;63.50;101726.28;5033823;27;46346;-64
2022/05/28 05:49:50;;;;;;;;;8.00;8.00;;;;;13.98;63.68;101729.03;5037156;27;45332;-65
2022/05/28 05:52:16;;;;;;;;;9.33;4.33;;;;;14.03;63.38;101737.66;5033488;28;45951;-64
2022/05/28 05:54:41;;;;;;;;;11.67;10.00;;;;;14.05;63.60;101730.41;5029513;27;45452;-64
2022/05/28 05:57:07;;;;;;;;;14.00;10.00;;;;;14.07;63.04;101739.25;5030068;27;45675;-65
2022/05/28 05:59:32;;;;;;;;;5.67;4.00;;;;;14.14;63.17;101740.66;5023778;28;45482;-64
2022/05/28 06:01:58;;;;;;;;;14.33;9.00;;;;;14.21;62.80;101743.88;5016033;27;45348;-64
2022/05/28 06:04:23;;;;;;;;;8.67;8.67;;;;;14.23;63.27;101733.09;5023537;27;45637;-65
2022/05/28 06:06:49;;;;;;;;;12.00;12.00;;;;;14.23;63.75;101738.44;5031581;27;46805;-66
2022/05/28 06:09:14;;;;;;;;;10.67;10.67;;;;;14.08;63.49;101750.81;5031808;28;45446;-65
2022/05/28 06:11:40;;;;;;;;;12.67;9.33;;;;;14.04;63.81;101744.75;5033079;27;45280;-64
2022/05/28 06:14:05;;;;;;;;;12.33;12.33;;;;;14.09;63.57;101742.72;5023001;27;45350;-64
2022/05/28 06:16:31;;;;;;;;;13.00;10.33;;;;;14.13;63.61;101744.28;5030610;27;46428;-65
2022/05/28 06:18:56;;;;;;;;;17.67;15.33;;;;;14.17;63.99;101745.84;5014147;27;45454;-67
2022/05/28 06:21:22;;;;;;;;;9.00;7.00;;;;;14.12;63.94;101741.69;5013008;28;45540;-66
2022/05/28 06:23:47;;;;;;;;;19.67;10.33;;;;;14.04;64.24;101739.41;5030040;27;45541;-65
2022/05/28 06:26:13;;;;;;;;;12.33;11.00;;;;;14.06;64.92;101733.97;5031342;27;47863;-65
2022/05/28 06:28:39;;;;;;;;;10.00;10.00;;;;;14.09;64.74;101749.88;5017117;27;45438;-67
2022/05/28 06:31:07;;;;;;;;;10.33;9.33;;;;;14.16;64.30;101743.25;5026229;27;45709;-67
2022/05/28 06:33:34;;;;;;;;;18.67;10.00;;;;;14.21;64.71;101746.56;5044140;27;45422;-69
2022/05/28 06:36:02;;;;;;;;;14.00;13.00;;;;;14.29;64.20;101744.31;5025975;27;45661;-67
2022/05/28 06:38:28;;;;;;;;;10.00;10.00;;;;;14.29;64.04;101743.47;5028707;28;45534;-67
2022/05/28 06:40:54;;;;;;;;;10.00;10.00;;;;;14.35;64.62;101738.66;5033577;28;45420;-67
2022/05/28 06:43:20;;;;;;;;;12.33;10.00;;;;;14.30;64.63;101739.84;5032377;28;45645;-67
2022/05/28 06:45:47;;;;;;;;;11.00;11.00;;;;;14.32;64.34;101737.94;5031205;28;45530;-68
2022/05/28 06:48:12;;;;;;;;;14.67;13.33;;;;;14.47;64.29;101744.34;5030514;28;45411;-71
2022/05/28 06:53:22;;;;;;;;;12.00;12.00;;;;;14.51;64.73;101748.56;5052176;28;45263;-73
2022/05/28 06:55:47;;;;;;;;;14.33;13.33;;;;;14.41;64.63;101735.63;5040557;27;47411;-67
2022/05/28 06:58:13;;;;;;;;;9.00;9.00;;;;;14.36;64.72;101736.84;5035556;28;45268;-70
2022/05/28 07:00:39;;;;;;;;;14.67;11.67;;;;;14.38;64.81;101740.31;5034025;27;45226;-65
2022/05/28 07:03:05;;;;;;;;;13.67;8.33;;;;;14.47;64.75;101744.34;5035840;28;45732;-69
2022/05/28 07:05:31;;;;;;;;;13.33;12.00;;;;;14.36;64.71;101713.63;5035549;28;46317;-70
2022/05/28 07:07:57;;;;;;;;;16.00;9.67;;;;;14.61;64.59;101742.63;5035008;27;45298;-71
2022/05/28 07:10:23;;;;;;;;;17.00;14.00;;;;;14.70;63.89;101743.94;5038635;28;45446;-70
2022/05/28 07:12:49;;;;;;;;;66.75;54.00;;;;;14.69;64.97;101731.50;5028275;28;45502;-67
2022/05/28 07:15:14;;;;;;;;;22.67;15.67;;;;;14.65;64.71;101736.16;5020674;27;45487;-64
2022/05/28 07:17:40;;;;;;;;;15.00;12.33;;;;;14.63;64.85;101727.34;5140367;27;45371;-68
2022/05/28 07:20:07;;;;;;;;;12.33;12.33;;;;;14.64;64.75;101734.44;5139666;27;45444;-69
2022/05/28 07:22:32;;;;;;;;;9.33;8.67;;;;;14.68;64.90;101727.09;5106327;27;45314;-73
2022/05/28 07:24:58;;;;;;;;;13.67;11.67;;;;;14.65;64.71;101720.09;5033983;27;46911;-70
2022/05/28 07:27:25;;;;;;;;;10.00;9.00;;;;;14.79;64.60;101716.66;5035662;28;45278;-70
2022/05/28 07:29:53;;;;;;;;;13.67;11.33;;;;;14.93;63.69;101723.91;5028859;27;45325;-70
2022/05/28 07:32:19;;;;;;;;;17.33;11.67;;;;;14.98;63.51;101713.81;5015336;28;45442;-66
2022/05/28 07:34:44;;;;;;;;;14.00;9.00;;;;;14.99;63.53;101697.66;5037487;27;45403;-69
2022/05/28 07:37:10;;;;;;;;;21.00;14.67;;;;;15.16;63.27;101715.44;5044425;28;45394;-67
2022/05/28 07:39:35;;;;;;;;;13.33;11.33;;;;;15.21;63.07;101707.97;5020360;27;45324;-72
2022/05/28 07:42:04;;;;;;;;;16.00;12.67;;;;;15.24;62.85;101715.00;5046607;27;45419;-66
2022/05/28 07:44:29;;;;;;;;;15.67;15.67;;;;;15.28;62.63;101708.50;5034830;27;45246;-64
2022/05/28 07:46:54;;;;;;;;;10.33;8.67;;;;;15.40;62.22;101709.63;5021122;28;45391;-68
2022/05/28 07:49:20;;;;;;;;;14.67;10.33;;;;;15.47;61.83;101705.59;5028237;27;45422;-68
2022/05/28 07:51:45;;;;;;;;;14.00;12.67;;;;;15.50;61.92;101708.13;5030836;27;45485;-68
2022/05/28 07:54:11;;;;;;;;;15.67;11.33;;;;;15.43;62.50;101714.78;5033603;27;46736;-67
2022/05/28 07:56:36;;;;;;;;;16.67;12.67;;;;;15.44;62.28;101703.97;5030327;27;45397;-64
2022/05/28 07:59:03;;;;;;;;;13.67;11.67;;;;;15.56;61.85;101702.38;5034089;28;45319;-66
2022/05/28 08:01:32;;;;;;;;;17.33;15.00;;;;;15.70;61.27;101702.47;5033710;27;45362;-65
2022/05/28 08:03:59;;;;;;;;;18.00;16.33;;;;;15.78;60.85;101699.34;5033200;27;46030;-74
2022/05/28 08:06:25;;;;;;;;;15.33;11.67;;;;;15.80;60.80;101700.09;5044274;28;45469;-66
2022/05/28 08:08:51;;;;;;;;;16.67;13.33;;;;;15.85;60.38;101701.53;5025285;27;45565;-65
2022/05/28 08:11:18;;;;;;;;;15.00;14.67;;;;;15.92;60.60;101700.22;5038889;27;45553;-66
2022/05/28 08:13:43;;;;;;;;;16.67;14.00;;;;;16.02;59.98;101699.66;5033537;28;46309;-66
2022/05/28 08:16:09;;;;;;;;;15.67;12.67;;;;;16.08;59.95;101699.28;5029576;28;45547;-60
2022/05/28 08:18:37;;;;;;;;;17.67;13.00;;;;;16.21;58.96;101695.75;5033400;28;45460;-70
2022/05/28 08:23:47;;;;;;;;;17.33;10.00;;;;;17.19;57.19;101689.50;5023713;28;45800;-68
2022/05/28 08:26:14;;;;;;;;;15.00;11.33;;;;;17.78;55.64;101691.81;5036470;27;45561;-67
2022/05/28 08:28:41;;;;;;;;;10.00;9.67;;;;;18.26;54.30;101695.59;5040619;27;45606;-64
2022/05/28 08:31:07;;;;;;;;;14.67;14.67;;;;;18.66;52.58;101693.66;5014807;28;45543;-65
2022/05/28 08:33:33;;;;;;;;;14.00;10.67;;;;;19.14;52.21;101688.28;5014077;28;45562;-67
2022/05/28 08:35:59;;;;;;;;;15.33;11.67;;;;;19.57;51.30;101691.34;5029232;28;45490;-64
2022/05/28 08:38:25;;;;;;;;;15.00;15.00;;;;;19.93;48.93;101690.34;5057936;27;45339;-65
2022/05/28 08:40:56;;;;;;;;;13.00;12.00;;;;;20.22;49.04;101685.34;5105058;27;45267;-66
2022/05/28 08:43:26;;;;;;;;;13.67;12.33;;;;;20.60;47.18;101678.75;5027009;28;45462;-68
2022/05/28 08:45:51;;;;;;;;;11.00;10.00;;;;;20.78;45.78;101674.53;5027548;27;45498;-63
2022/05/28 08:48:22;;;;;;;;;12.67;11.33;;;;;20.92;44.64;101673.41;5034820;27;45386;-68
2022/05/28 08:50:53;;;;;;;;;14.67;11.67;;;;;21.11;45.91;101676.31;5029912;28;45534;-68
2022/05/28 08:53:26;;;;;;;;;11.67;9.67;;;;;21.61;44.81;101682.03;5026677;28;45568;-68
2022/05/28 08:55:53;;;;;;;;;15.67;13.67;;;;;21.72;43.09;101671.13;5030368;27;45477;-65
2022/05/28 08:58:24;;;;;;;;;11.00;11.00;;;;;21.81;42.77;101676.78;5012701;27;45365;-64
2022/05/28 09:01:13;;;;;;;;;9.33;9.00;;;;;22.03;43.02;101676.63;5014136;28;45455;-66
2022/05/28 09:03:57;;;;;;;;;8.00;8.00;;;;;22.32;42.11;101666.81;5017203;27;45469;-66
2022/05/28 09:06:35;;;;;;;;;7.75;6.00;;;;;22.49;40.45;101664.47;5013826;28;45588;-65
2022/05/28 09:09:00;;;;;;;;;8.00;4.67;;;;;22.64;40.58;101660.38;5014215;28;45373;-66
2022/05/28 09:11:34;;;;;;;;;10.00;8.75;;;;;22.60;39.00;101656.22;5012559;27;45722;-64
2022/05/28 09:14:13;;;;;;;;;11.00;8.00;;;;;22.76;41.29;101658.41;5013554;28;45423;-65
2022/05/28 09:16:41;;;;;;;;;9.75;7.00;;;;;23.08;40.19;101650.94;5092542;27;45449;-65
2022/05/28 09:19:24;;;;;;;;;10.00;8.25;;;;;23.26;40.71;101629.38;5137802;27;45528;-65
2022/05/28 09:21:49;;;;;;;;;12.50;9.00;;;;;23.51;39.13;101645.06;5037973;27;45533;-66
2022/05/28 09:24:24;;;;;;;;;9.00;9.00;;;;;23.72;40.25;101641.38;5053615;28;45316;-65
2022/05/28 09:26:59;;;;;;;;;9.00;8.50;;;;;24.01;38.47;101639.44;5053884;27;45336;-66
2022/05/28 09:29:30;;;;;;;;;15.00;11.25;;;;;24.03;37.83;101636.56;5053824;28;45403;-65
2022/05/28 09:32:20;;;;;;;;;12.25;10.00;;;;;23.76;38.83;101638.22;5052564;28;45351;-64
2022/05/28 09:34:48;;;;;;;;;10.25;8.00;;;;;23.59;37.81;101632.69;5050158;27;46318;-65
2022/05/28 09:37:32;;;;;;;;;10.00;7.50;;;;;23.24;39.55;101642.22;5033318;28;45282;-65
2022/05/28 09:40:06;;;;;;;;;10.75;7.25;;;;;23.18;38.29;101631.97;5031501;28;45285;-66
2022/05/28 09:42:50;;;;;;;;;9.00;7.25;;;;;23.25;37.96;101627.66;5013674;28;45456;-65
2022/05/28 09:45:52;;;;;;;;;14.75;9.50;;;;;23.66;39.31;101620.22;5013180;28;45530;-66
2022/05/28 09:48:21;;;;;;;;;9.00;7.00;;;;;24.03;38.61;101602.09;5000237;28;45261;-67
2022/05/28 09:50:46;;;;;;;;;7.75;6.75;;;;;24.23;35.02;101610.19;5014067;28;45259;-65
2022/05/28 09:56:41;;;;;;;;;4.75;3.75;;;;;23.56;36.15;101598.47;5017332;28;45455;-67
2022/05/28 09:59:42;;;;;;;;;7.00;6.50;;;;;23.51;37.83;101600.78;5050989;28;45317;-66
2022/05/28 10:02:18;;;;;;;;;7.75;7.00;;;;;23.69;37.88;101603.63;5055488;27;45634;-66
2022/05/28 10:05:23;;;;;;;;;10.00;6.00;;;;;24.00;37.70;101588.81;5053908;28;45347;-66
2022/05/28 10:07:51;;;;;;;;;7.00;5.50;;;;;24.47;36.51;101577.00;5012561;28;46105;-66
2022/05/28 10:10:31;;;;;;;;;8.75;8.75;;;;;24.71;34.69;101580.84;5013068;27;45335;-64
2022/05/28 10:13:13;;;;;;;;;10.40;6.80;;;;;24.84;34.56;101582.34;5015104;27;45435;-68
2022/05/28 10:15:43;;;;;;;;;10.00;8.00;;;;;25.17;34.92;101580.84;5046944;27;45504;-67
2022/05/28 10:18:13;;;;;;;;;7.00;7.00;;;;;25.38;35.12;101575.03;5031380;28;45372;-66
2022/05/28 10:20:39;;;;;;;;;7.20;7.00;;;;;25.42;32.65;101579.16;5033153;28;45407;-66
2022/05/28 10:23:14;;;;;;;;;6.50;5.00;;;;;25.00;33.57;101582.50;5034196;28;45450;-66
2022/05/28 10:25:50;;;;;;;;;6.25;6.25;;;;;24.44;34.30;101582.75;5034740;28;45363;-66
2022/05/28 10:28:44;;;;;;;;;8.50;6.25;;;;;23.73;35.69;101584.19;5035355;28;46450;-64
2022/05/28 10:31:17;;;;;;;;;5.60;4.00;;;;;23.32;36.51;101590.81;5033387;28;45517;-65
2022/05/28 10:33:44;;;;;;;;;9.00;7.00;;;;;22.97;36.27;101585.94;5036032;28;45308;-66
2022/05/28 10:36:15;;;;;;;;;6.00;6.00;;;;;22.76;37.24;101586.03;5035875;28;45617;-67
2022/05/28 10:38:41;;;;;;;;;6.50;6.50;;;;;22.72;37.75;101586.47;5035577;28;45283;-67
2022/05/28 10:41:29;;;;;;;;;7.25;6.25;;;;;22.61;37.49;101582.88;5035450;27;45225;-68
2022/05/28 10:43:55;;;;;;;;;8.25;4.50;;;;;22.49;37.40;101580.41;5035707;28;45453;-67
2022/05/28 10:46:49;;;;;;;;;4.00;4.00;;;;;22.05;37.72;101583.44;5025004;28;45482;-66
2022/05/28 10:49:42;;;;;;;;;5.00;5.00;;;;;21.86;38.65;101567.03;5027670;28;46313;-66
2022/05/28 10:52:26;;;;;;;;;8.75;5.50;;;;;22.04;38.56;101570.84;5034291;28;45408;-66
2022/05/28 10:55:03;;;;;;;;;5.25;5.25;;;;;22.22;38.60;101560.25;5034067;28;45289;-66
2022/05/28 10:58:00;;;;;;;;;7.25;6.00;;;;;22.22;38.34;101562.09;5036056;28;45367;-66
2022/05/28 11:00:53;;;;;;;;;8.00;5.00;;;;;22.10;38.07;101552.34;5035488;28;45977;-65
2022/05/28 11:03:58;;;;;;;;;9.25;6.00;;;;;21.68;39.27;101558.69;5035666;28;45404;-67
2022/05/28 11:06:31;;;;;;;;;7.50;5.75;;;;;21.76;38.35;101555.34;5035228;28;45430;-66
2022/05/28 11:09:15;;;;;;;;;4.25;4.25;;;;;21.68;38.57;101558.69;5034252;28;45289;-65
2022/05/28 11:11:53;;;;;;;;;7.25;4.00;;;;;21.57;38.49;101560.63;5035303;28;45459;-66
2022/05/28 11:14:31;;;;;;;;;5.67;5.00;;;;;21.58;38.70;101557.78;5035691;27;45780;-66
2022/05/28 11:17:18;;;;;;;;;4.50;4.50;;;;;21.44;37.80;101555.41;5034580;28;45498;-66
2022/05/28 11:20:15;;;;;;;;;6.50;5.00;;;;;21.50;36.89;101554.91;5035081;28;45286;-65
2022/05/28 11:22:40;;;;;;;;;3.00;3.00;;;;;21.78;36.63;101559.63;5055000;28;45339;-66
2022/05/28 11:25:19;;;;;;;;;4.50;3.50;;;;;21.67;36.22;101546.16;5045497;28;45439;-66
2022/05/28 11:28:20;;;;;;;;;4.75;3.50;;;;;21.77;36.27;101541.66;5034619;28;45377;-65
2022/05/28 11:30:51;;;;;;;;;6.50;4.75;;;;;21.87;36.26;101535.41;5012431;28;45327;-65
2022/05/28 11:33:27;;;;;;;;;4.75;4.75;;;;;22.08;35.65;101533.53;5035467;28;46150;-67
2022/05/28 11:36:03;;;;;;;;;1.75;1.75;;;;;22.00;35.52;101520.63;5034243;28;45578;-67
2022/05/28 11:38:50;;;;;;;;;4.50;3.00;;;;;22.00;36.02;101525.19;5040901;27;45321;-66
2022/05/28 11:41:28;;;;;;;;;5.50;4.25;;;;;21.97;35.38;101529.03;5015854;28;45360;-65